sensor_id;sensor_type;location;lat;lon;timestamp;temperature;humidity
15535;DHT22;7869;49.264;8.596;2022-08-01T00:02:10;21.60;58.60
15535;DHT22;7869;49.264;8.596;2022-08-01T00:04:36;21.60;61.80
15535;DHT22;7869;49.264;8.596;2022-08-01T00:07:01;21.50;64.10
15535;DHT22;7869;49.264;8.596;2022-08-01T00:09:27;21.50;68.40
15535;DHT22;7869;49.264;8.596;2022-08-01T00:11:52;21.50;68.30
15535;DHT22;7869;49.264;8.596;2022-08-01T00:14:18;21.50;72.30
15535;DHT22;7869;49.264;8.596;2022-08-01T00:16:43;21.30;77.30
15535;DHT22;7869;49.264;8.596;2022-08-01T00:19:09;21.20;83.40
15535;DHT22;7869;49.264;8.596;2022-08-01T00:21:35;21.10;99.90
15535;DHT22;7869;49.264;8.596;2022-08-01T00:24:01;21.10;92.40
15535;DHT22;7869;49.264;8.596;2022-08-01T00:26:26;21.10;93.70
15535;DHT22;7869;49.264;8.596;2022-08-01T00:28:52;21.20;96.40
15535;DHT22;7869;49.264;8.596;2022-08-01T00:31:17;21.00;97.20
15535;DHT22;7869;49.264;8.596;2022-08-01T00:33:43;21.00;99.90
15535;DHT22;7869;49.264;8.596;2022-08-01T00:36:08;21.00;99.90
15535;DHT22;7869;49.264;8.596;2022-08-01T00:38:34;21.00;99.90
15535;DHT22;7869;49.264;8.596;2022-08-01T00:41:00;21.00;99.90
15535;DHT22;7869;49.264;8.596;2022-08-01T00:43:25;20.90;99.90
15535;DHT22;7869;49.264;8.596;2022-08-01T00:45:51;20.90;99.90
15535;DHT22;7869;49.264;8.596;2022-08-01T00:48:16;20.90;99.90
15535;DHT22;7869;49.264;8.596;2022-08-01T00:50:42;20.90;99.90
15535;DHT22;7869;49.264;8.596;2022-08-01T00:53:08;20.90;99.90
15535;DHT22;7869;49.264;8.596;2022-08-01T00:55:34;21.00;99.90
15535;DHT22;7869;49.264;8.596;2022-08-01T00:58:00;21.00;99.90
15535;DHT22;7869;49.264;8.596;2022-08-01T01:00:26;21.00;99.90
15535;DHT22;7869;49.264;8.596;2022-08-01T01:02:51;21.00;99.90
15535;DHT22;7869;49.264;8.596;2022-08-01T01:05:17;20.90;99.90
15535;DHT22;7869;49.264;8.596;2022-08-01T01:10:46;20.90;99.90
15535;DHT22;7869;49.264;8.596;2022-08-01T01:13:20;20.80;99.90
15535;DHT22;7869;49.264;8.596;2022-08-01T01:16:01;20.70;99.90
15535;DHT22;7869;49.264;8.596;2022-08-01T01:18:47;20.50;99.90
15535;DHT22;7869;49.264;8.596;2022-08-01T01:24:32;20.30;99.90
15535;DHT22;7869;49.264;8.596;2022-08-01T01:29:54;20.10;99.90
15535;DHT22;7869;49.264;8.596;2022-08-01T01:32:36;20.20;99.90
15535;DHT22;7869;49.264;8.596;2022-08-01T01:35:07;20.20;99.90
15535;DHT22;7869;49.264;8.596;2022-08-01T01:37:36;20.20;99.90
15535;DHT22;7869;49.264;8.596;2022-08-01T01:40:04;20.20;99.90
15535;DHT22;7869;49.264;8.596;2022-08-01T01:42:32;20.10;99.90
15535;DHT22;7869;49.264;8.596;2022-08-01T01:44:59;20.10;99.90
15535;DHT22;7869;49.264;8.596;2022-08-01T01:47:25;20.00;99.90
15535;DHT22;7869;49.264;8.596;2022-08-01T01:49:54;19.90;99.90
15535;DHT22;7869;49.264;8.596;2022-08-01T01:52:22;19.90;99.90
15535;DHT22;7869;49.264;8.596;2022-08-01T01:54:49;19.90;99.90
15535;DHT22;7869;49.264;8.596;2022-08-01T01:57:17;19.90;99.90
15535;DHT22;7869;49.264;8.596;2022-08-01T01:59:44;19.90;99.90
15535;DHT22;7869;49.264;8.596;2022-08-01T02:02:11;19.90;99.90
15535;DHT22;7869;49.264;8.596;2022-08-01T02:04:41;19.90;99.90
15535;DHT22;7869;49.264;8.596;2022-08-01T02:07:09;19.90;99.90
15535;DHT22;7869;49.264;8.596;2022-08-01T02:09:37;19.90;99.90
15535;DHT22;7869;49.264;8.596;2022-08-01T02:12:05;19.80;99.90
15535;DHT22;7869;49.264;8.596;2022-08-01T02:14:33;19.80;99.90
15535;DHT22;7869;49.264;8.596;2022-08-01T02:17:00;19.90;99.90
15535;DHT22;7869;49.264;8.596;2022-08-01T02:19:29;20.00;99.90
15535;DHT22;7869;49.264;8.596;2022-08-01T02:22:01;20.10;99.90
15535;DHT22;7869;49.264;8.596;2022-08-01T02:24:49;20.20;99.90
15535;DHT22;7869;49.264;8.596;2022-08-01T02:27:19;20.10;99.90
15535;DHT22;7869;49.264;8.596;2022-08-01T02:29:55;19.90;99.90
15535;DHT22;7869;49.264;8.596;2022-08-01T02:32:27;19.90;99.90
15535;DHT22;7869;49.264;8.596;2022-08-01T02:34:56;19.90;99.90
15535;DHT22;7869;49.264;8.596;2022-08-01T02:37:24;19.90;99.90
15535;DHT22;7869;49.264;8.596;2022-08-01T02:39:52;19.90;99.90
15535;DHT22;7869;49.264;8.596;2022-08-01T02:42:19;20.00;99.90
15535;DHT22;7869;49.264;8.596;2022-08-01T02:44:47;20.10;99.90
15535;DHT22;7869;49.264;8.596;2022-08-01T02:47:15;20.20;99.90
15535;DHT22;7869;49.264;8.596;2022-08-01T02:49:46;20.20;99.90
15535;DHT22;7869;49.264;8.596;2022-08-01T02:52:16;20.10;99.90
15535;DHT22;7869;49.264;8.596;2022-08-01T02:54:43;19.90;99.90
15535;DHT22;7869;49.264;8.596;2022-08-01T02:57:11;19.80;99.90
15535;DHT22;7869;49.264;8.596;2022-08-01T02:59:39;19.80;99.90
15535;DHT22;7869;49.264;8.596;2022-08-01T03:02:06;19.80;1.00
15535;DHT22;7869;49.264;8.596;2022-08-01T03:04:34;19.80;1.00
15535;DHT22;7869;49.264;8.596;2022-08-01T03:07:03;19.80;1.00
15535;DHT22;7869;49.264;8.596;2022-08-01T03:09:31;19.70;1.00
15535;DHT22;7869;49.264;8.596;2022-08-01T03:11:59;19.60;1.00
15535;DHT22;7869;49.264;8.596;2022-08-01T03:14:27;19.70;1.00
15535;DHT22;7869;49.264;8.596;2022-08-01T03:16:56;19.50;1.00
15535;DHT22;7869;49.264;8.596;2022-08-01T03:19:24;19.50;1.00
15535;DHT22;7869;49.264;8.596;2022-08-01T03:21:52;19.40;1.00
15535;DHT22;7869;49.264;8.596;2022-08-01T03:24:18;19.20;1.00
15535;DHT22;7869;49.264;8.596;2022-08-01T03:26:45;19.10;1.00
15535;DHT22;7869;49.264;8.596;2022-08-01T03:29:16;19.00;1.00
15535;DHT22;7869;49.264;8.596;2022-08-01T03:31:44;19.00;16.20
15535;DHT22;7869;49.264;8.596;2022-08-01T03:34:10;18.90;91.40
15535;DHT22;7869;49.264;8.596;2022-08-01T03:36:49;18.80;99.90
15535;DHT22;7869;49.264;8.596;2022-08-01T03:39:17;18.80;99.90
15535;DHT22;7869;49.264;8.596;2022-08-01T03:41:49;18.70;99.90
15535;DHT22;7869;49.264;8.596;2022-08-01T03:44:20;18.70;99.90
15535;DHT22;7869;49.264;8.596;2022-08-01T03:46:48;18.70;1.00
15535;DHT22;7869;49.264;8.596;2022-08-01T03:49:18;18.70;1.00
15535;DHT22;7869;49.264;8.596;2022-08-01T03:51:47;18.70;1.00
15535;DHT22;7869;49.264;8.596;2022-08-01T03:54:17;18.70;1.00
15535;DHT22;7869;49.264;8.596;2022-08-01T03:56:46;18.80;1.00
15535;DHT22;7869;49.264;8.596;2022-08-01T03:59:14;18.80;1.00
15535;DHT22;7869;49.264;8.596;2022-08-01T04:01:41;18.70;1.00
15535;DHT22;7869;49.264;8.596;2022-08-01T04:04:08;18.60;1.00
15535;DHT22;7869;49.264;8.596;2022-08-01T04:06:37;18.50;1.00
15535;DHT22;7869;49.264;8.596;2022-08-01T04:09:03;18.60;1.00
15535;DHT22;7869;49.264;8.596;2022-08-01T04:11:29;18.50;99.90
15535;DHT22;7869;49.264;8.596;2022-08-01T04:13:55;18.50;99.90
15535;DHT22;7869;49.264;8.596;2022-08-01T04:16:22;18.50;99.90
15535;DHT22;7869;49.264;8.596;2022-08-01T04:18:48;18.50;99.90
15535;DHT22;7869;49.264;8.596;2022-08-01T04:21:14;18.50;99.90
15535;DHT22;7869;49.264;8.596;2022-08-01T04:23:43;18.60;99.90
15535;DHT22;7869;49.264;8.596;2022-08-01T04:26:12;18.80;99.90
15535;DHT22;7869;49.264;8.596;2022-08-01T04:28:39;18.90;99.90
15535;DHT22;7869;49.264;8.596;2022-08-01T04:31:09;18.90;99.90
15535;DHT22;7869;49.264;8.596;2022-08-01T04:33:38;18.90;99.90
15535;DHT22;7869;49.264;8.596;2022-08-01T04:36:06;19.00;99.90
15535;DHT22;7869;49.264;8.596;2022-08-01T04:38:34;19.10;99.90
15535;DHT22;7869;49.264;8.596;2022-08-01T04:41:02;19.40;1.00
15535;DHT22;7869;49.264;8.596;2022-08-01T04:43:28;19.40;1.00
15535;DHT22;7869;49.264;8.596;2022-08-01T04:45:55;19.50;1.00
15535;DHT22;7869;49.264;8.596;2022-08-01T04:48:21;19.60;1.00
15535;DHT22;7869;49.264;8.596;2022-08-01T04:50:49;19.70;1.00
15535;DHT22;7869;49.264;8.596;2022-08-01T04:53:16;19.70;1.00
15535;DHT22;7869;49.264;8.596;2022-08-01T04:55:46;19.60;1.00
15535;DHT22;7869;49.264;8.596;2022-08-01T04:58:12;19.70;1.00
15535;DHT22;7869;49.264;8.596;2022-08-01T05:00:38;19.80;1.00
15535;DHT22;7869;49.264;8.596;2022-08-01T05:03:03;19.80;1.00
15535;DHT22;7869;49.264;8.596;2022-08-01T05:05:29;19.90;1.00
15535;DHT22;7869;49.264;8.596;2022-08-01T05:07:56;19.90;1.00
15535;DHT22;7869;49.264;8.596;2022-08-01T05:10:21;19.90;1.00
15535;DHT22;7869;49.264;8.596;2022-08-01T05:12:47;20.00;1.00
15535;DHT22;7869;49.264;8.596;2022-08-01T05:15:12;20.00;1.00
15535;DHT22;7869;49.264;8.596;2022-08-01T05:17:38;19.90;1.00
15535;DHT22;7869;49.264;8.596;2022-08-01T05:20:04;20.00;1.00
15535;DHT22;7869;49.264;8.596;2022-08-01T05:22:31;20.00;1.00
15535;DHT22;7869;49.264;8.596;2022-08-01T05:24:57;20.10;1.00
15535;DHT22;7869;49.264;8.596;2022-08-01T05:27:25;20.20;99.90
15535;DHT22;7869;49.264;8.596;2022-08-01T05:29:51;20.40;99.90
15535;DHT22;7869;49.264;8.596;2022-08-01T05:32:16;20.60;99.90
15535;DHT22;7869;49.264;8.596;2022-08-01T05:34:42;20.80;99.90
15535;DHT22;7869;49.264;8.596;2022-08-01T05:37:08;21.00;90.00
15535;DHT22;7869;49.264;8.596;2022-08-01T05:39:33;21.10;7.80
15535;DHT22;7869;49.264;8.596;2022-08-01T05:41:59;21.20;1.00
15535;DHT22;7869;49.264;8.596;2022-08-01T05:44:24;21.20;1.00
15535;DHT22;7869;49.264;8.596;2022-08-01T05:46:50;21.30;1.00
15535;DHT22;7869;49.264;8.596;2022-08-01T05:49:16;21.30;1.00
15535;DHT22;7869;49.264;8.596;2022-08-01T05:51:42;21.40;1.00
15535;DHT22;7869;49.264;8.596;2022-08-01T05:54:07;21.50;1.00
15535;DHT22;7869;49.264;8.596;2022-08-01T05:56:33;21.60;1.00
15535;DHT22;7869;49.264;8.596;2022-08-01T05:58:59;21.70;1.00
15535;DHT22;7869;49.264;8.596;2022-08-01T06:01:24;21.70;1.00
15535;DHT22;7869;49.264;8.596;2022-08-01T06:03:50;21.80;1.00
15535;DHT22;7869;49.264;8.596;2022-08-01T06:06:16;21.90;1.00
15535;DHT22;7869;49.264;8.596;2022-08-01T06:08:42;22.00;1.00
15535;DHT22;7869;49.264;8.596;2022-08-01T06:11:07;22.10;1.00
15535;DHT22;7869;49.264;8.596;2022-08-01T06:13:33;22.20;1.00
15535;DHT22;7869;49.264;8.596;2022-08-01T06:15:58;22.30;1.00
15535;DHT22;7869;49.264;8.596;2022-08-01T06:18:24;22.40;1.00
15535;DHT22;7869;49.264;8.596;2022-08-01T06:20:50;22.50;1.00
15535;DHT22;7869;49.264;8.596;2022-08-01T06:23:15;22.60;1.00
15535;DHT22;7869;49.264;8.596;2022-08-01T06:25:42;22.60;1.00
15535;DHT22;7869;49.264;8.596;2022-08-01T06:28:08;22.70;1.00
15535;DHT22;7869;49.264;8.596;2022-08-01T06:30:34;22.90;1.00
15535;DHT22;7869;49.264;8.596;2022-08-01T06:32:59;23.00;1.00
15535;DHT22;7869;49.264;8.596;2022-08-01T06:35:26;23.10;1.00
15535;DHT22;7869;49.264;8.596;2022-08-01T06:37:52;23.20;99.90
15535;DHT22;7869;49.264;8.596;2022-08-01T06:40:17;23.20;99.90
15535;DHT22;7869;49.264;8.596;2022-08-01T06:42:44;23.30;99.90
15535;DHT22;7869;49.264;8.596;2022-08-01T06:45:12;23.30;99.90
15535;DHT22;7869;49.264;8.596;2022-08-01T06:47:38;23.40;99.90
15535;DHT22;7869;49.264;8.596;2022-08-01T06:50:06;23.50;99.90
15535;DHT22;7869;49.264;8.596;2022-08-01T06:52:32;23.60;99.90
15535;DHT22;7869;49.264;8.596;2022-08-01T06:54:58;23.70;99.90
15535;DHT22;7869;49.264;8.596;2022-08-01T06:57:23;23.80;99.90
15535;DHT22;7869;49.264;8.596;2022-08-01T06:59:49;24.00;99.90
15535;DHT22;7869;49.264;8.596;2022-08-01T07:02:14;23.80;99.90
15535;DHT22;7869;49.264;8.596;2022-08-01T07:04:40;23.90;99.90
15535;DHT22;7869;49.264;8.596;2022-08-01T07:07:06;23.80;99.90
15535;DHT22;7869;49.264;8.596;2022-08-01T07:09:31;23.80;99.90
15535;DHT22;7869;49.264;8.596;2022-08-01T07:11:57;23.70;99.90
15535;DHT22;7869;49.264;8.596;2022-08-01T07:14:23;23.60;99.90
15535;DHT22;7869;49.264;8.596;2022-08-01T07:16:49;23.70;99.90
15535;DHT22;7869;49.264;8.596;2022-08-01T07:19:15;23.80;99.90
15535;DHT22;7869;49.264;8.596;2022-08-01T07:21:41;23.90;99.90
15535;DHT22;7869;49.264;8.596;2022-08-01T07:24:11;23.80;99.90
15535;DHT22;7869;49.264;8.596;2022-08-01T07:26:38;23.90;99.90
15535;DHT22;7869;49.264;8.596;2022-08-01T07:29:04;24.00;99.90
15535;DHT22;7869;49.264;8.596;2022-08-01T07:31:29;24.10;99.90
15535;DHT22;7869;49.264;8.596;2022-08-01T07:33:55;24.20;99.90
15535;DHT22;7869;49.264;8.596;2022-08-01T07:36:21;24.20;99.90
15535;DHT22;7869;49.264;8.596;2022-08-01T07:38:46;24.10;99.90
15535;DHT22;7869;49.264;8.596;2022-08-01T07:41:13;24.30;99.90
15535;DHT22;7869;49.264;8.596;2022-08-01T07:43:38;24.40;99.90
15535;DHT22;7869;49.264;8.596;2022-08-01T07:46:04;24.40;99.90
15535;DHT22;7869;49.264;8.596;2022-08-01T07:48:30;24.50;99.90
15535;DHT22;7869;49.264;8.596;2022-08-01T07:50:56;24.60;99.90
15535;DHT22;7869;49.264;8.596;2022-08-01T07:53:22;24.40;99.90
15535;DHT22;7869;49.264;8.596;2022-08-01T07:55:48;24.10;99.90
15535;DHT22;7869;49.264;8.596;2022-08-01T07:58:14;24.00;99.90
15535;DHT22;7869;49.264;8.596;2022-08-01T08:00:39;24.20;99.90
15535;DHT22;7869;49.264;8.596;2022-08-01T08:03:05;24.40;99.90
15535;DHT22;7869;49.264;8.596;2022-08-01T08:05:31;24.50;99.90
15535;DHT22;7869;49.264;8.596;2022-08-01T08:07:58;24.60;99.90
15535;DHT22;7869;49.264;8.596;2022-08-01T08:10:23;24.50;99.90
15535;DHT22;7869;49.264;8.596;2022-08-01T08:12:49;24.70;99.90
15535;DHT22;7869;49.264;8.596;2022-08-01T08:15:15;24.80;99.90
15535;DHT22;7869;49.264;8.596;2022-08-01T08:17:40;24.90;99.90
15535;DHT22;7869;49.264;8.596;2022-08-01T08:20:08;25.00;99.90
15535;DHT22;7869;49.264;8.596;2022-08-01T08:22:34;25.00;99.90
15535;DHT22;7869;49.264;8.596;2022-08-01T08:24:59;25.10;99.90
15535;DHT22;7869;49.264;8.596;2022-08-01T08:27:25;25.20;99.90
15535;DHT22;7869;49.264;8.596;2022-08-01T08:29:51;25.50;99.90
15535;DHT22;7869;49.264;8.596;2022-08-01T08:32:17;25.70;99.90
15535;DHT22;7869;49.264;8.596;2022-08-01T08:34:42;25.60;99.90
15535;DHT22;7869;49.264;8.596;2022-08-01T08:37:08;25.30;99.90
15535;DHT22;7869;49.264;8.596;2022-08-01T08:39:34;25.10;99.90
15535;DHT22;7869;49.264;8.596;2022-08-01T08:42:00;25.00;99.90
15535;DHT22;7869;49.264;8.596;2022-08-01T08:44:27;25.00;99.90
15535;DHT22;7869;49.264;8.596;2022-08-01T08:46:53;25.00;99.90
15535;DHT22;7869;49.264;8.596;2022-08-01T08:49:26;24.90;99.90
15535;DHT22;7869;49.264;8.596;2022-08-01T08:51:53;25.20;99.90
15535;DHT22;7869;49.264;8.596;2022-08-01T08:54:21;25.60;99.90
15535;DHT22;7869;49.264;8.596;2022-08-01T08:56:49;25.90;99.90
15535;DHT22;7869;49.264;8.596;2022-08-01T08:59:15;25.80;99.90
15535;DHT22;7869;49.264;8.596;2022-08-01T09:01:42;26.00;99.90
15535;DHT22;7869;49.264;8.596;2022-08-01T09:04:09;26.00;99.90
15535;DHT22;7869;49.264;8.596;2022-08-01T09:06:35;26.10;99.90
15535;DHT22;7869;49.264;8.596;2022-08-01T09:09:00;26.20;99.90
15535;DHT22;7869;49.264;8.596;2022-08-01T09:11:26;26.20;99.90
15535;DHT22;7869;49.264;8.596;2022-08-01T09:14:13;26.10;99.90
15535;DHT22;7869;49.264;8.596;2022-08-01T09:16:45;26.30;99.90
15535;DHT22;7869;49.264;8.596;2022-08-01T09:19:18;26.10;99.90
15535;DHT22;7869;49.264;8.596;2022-08-01T09:21:58;26.30;99.90
15535;DHT22;7869;49.264;8.596;2022-08-01T09:24:26;26.40;99.90
15535;DHT22;7869;49.264;8.596;2022-08-01T09:26:52;26.30;99.90
15535;DHT22;7869;49.264;8.596;2022-08-01T09:29:21;26.40;99.90
15535;DHT22;7869;49.264;8.596;2022-08-01T09:31:47;26.60;99.90
15535;DHT22;7869;49.264;8.596;2022-08-01T09:34:13;26.60;99.90
15535;DHT22;7869;49.264;8.596;2022-08-01T09:36:48;26.60;99.90
15535;DHT22;7869;49.264;8.596;2022-08-01T09:39:17;26.90;99.90
15535;DHT22;7869;49.264;8.596;2022-08-01T09:41:43;27.00;99.90
15535;DHT22;7869;49.264;8.596;2022-08-01T09:44:09;27.20;99.90
15535;DHT22;7869;49.264;8.596;2022-08-01T09:46:34;27.20;99.90
15535;DHT22;7869;49.264;8.596;2022-08-01T09:49:05;27.00;99.90
15535;DHT22;7869;49.264;8.596;2022-08-01T09:51:35;27.10;99.90
15535;DHT22;7869;49.264;8.596;2022-08-01T09:54:03;27.20;99.90
15535;DHT22;7869;49.264;8.596;2022-08-01T09:56:37;27.10;99.90
15535;DHT22;7869;49.264;8.596;2022-08-01T09:59:04;27.10;99.90
15535;DHT22;7869;49.264;8.596;2022-08-01T10:01:46;27.00;99.90
15535;DHT22;7869;49.264;8.596;2022-08-01T10:06:38;26.80;99.90
15535;DHT22;7869;49.264;8.596;2022-08-01T10:09:04;26.50;99.90
15535;DHT22;7869;49.264;8.596;2022-08-01T10:11:30;26.50;99.90
15535;DHT22;7869;49.264;8.596;2022-08-01T10:13:58;26.70;99.90
15535;DHT22;7869;49.264;8.596;2022-08-01T10:16:26;26.70;99.90
15535;DHT22;7869;49.264;8.596;2022-08-01T10:18:53;26.90;99.90
15535;DHT22;7869;49.264;8.596;2022-08-01T10:21:20;26.90;99.90
15535;DHT22;7869;49.264;8.596;2022-08-01T10:23:46;26.80;99.90
15535;DHT22;7869;49.264;8.596;2022-08-01T10:26:12;26.80;99.90
15535;DHT22;7869;49.264;8.596;2022-08-01T10:28:40;27.00;99.90
15535;DHT22;7869;49.264;8.596;2022-08-01T10:31:08;27.30;99.90
15535;DHT22;7869;49.264;8.596;2022-08-01T10:33:34;27.60;99.90
15535;DHT22;7869;49.264;8.596;2022-08-01T10:36:02;27.40;99.90
15535;DHT22;7869;49.264;8.596;2022-08-01T10:38:28;27.40;99.90
15535;DHT22;7869;49.264;8.596;2022-08-01T10:40:55;27.30;99.90
15535;DHT22;7869;49.264;8.596;2022-08-01T10:43:22;27.20;99.90
15535;DHT22;7869;49.264;8.596;2022-08-01T10:45:49;27.10;99.90
15535;DHT22;7869;49.264;8.596;2022-08-01T10:48:32;27.00;99.90
15535;DHT22;7869;49.264;8.596;2022-08-01T10:51:04;27.30;99.90
15535;DHT22;7869;49.264;8.596;2022-08-01T10:53:30;27.20;99.90
15535;DHT22;7869;49.264;8.596;2022-08-01T10:56:02;27.20;99.90
15535;DHT22;7869;49.264;8.596;2022-08-01T10:58:32;27.30;99.90
15535;DHT22;7869;49.264;8.596;2022-08-01T11:01:31;27.50;99.90
15535;DHT22;7869;49.264;8.596;2022-08-01T11:09:24;28.00;99.90
15535;DHT22;7869;49.264;8.596;2022-08-01T11:14:23;28.70;99.90
15535;DHT22;7869;49.264;8.596;2022-08-01T11:16:49;29.00;99.90
15535;DHT22;7869;49.264;8.596;2022-08-01T11:19:14;28.90;99.90
15535;DHT22;7869;49.264;8.596;2022-08-01T11:35:17;28.60;99.90
15535;DHT22;7869;49.264;8.596;2022-08-01T11:37:46;28.60;99.90
15535;DHT22;7869;49.264;8.596;2022-08-01T11:40:16;28.50;99.90
15535;DHT22;7869;49.264;8.596;2022-08-01T11:42:42;28.20;99.90
15535;DHT22;7869;49.264;8.596;2022-08-01T11:45:08;28.10;99.90
15535;DHT22;7869;49.264;8.596;2022-08-01T11:50:33;27.90;99.90
15535;DHT22;7869;49.264;8.596;2022-08-01T11:53:00;27.80;99.90
15535;DHT22;7869;49.264;8.596;2022-08-01T11:55:27;27.80;99.90
15535;DHT22;7869;49.264;8.596;2022-08-01T11:58:07;27.70;99.90
15535;DHT22;7869;49.264;8.596;2022-08-01T12:00:33;27.90;99.90
15535;DHT22;7869;49.264;8.596;2022-08-01T12:03:03;28.00;99.90
15535;DHT22;7869;49.264;8.596;2022-08-01T12:05:30;28.10;99.90
15535;DHT22;7869;49.264;8.596;2022-08-01T12:07:58;28.20;99.90
15535;DHT22;7869;49.264;8.596;2022-08-01T12:10:27;28.30;99.90
15535;DHT22;7869;49.264;8.596;2022-08-01T12:12:58;28.40;99.90
15535;DHT22;7869;49.264;8.596;2022-08-01T12:15:28;28.40;99.90
15535;DHT22;7869;49.264;8.596;2022-08-01T12:18:02;28.50;99.90
15535;DHT22;7869;49.264;8.596;2022-08-01T12:20:32;28.60;99.90
15535;DHT22;7869;49.264;8.596;2022-08-01T12:23:09;28.50;99.90
15535;DHT22;7869;49.264;8.596;2022-08-01T12:25:36;28.50;99.90
15535;DHT22;7869;49.264;8.596;2022-08-01T12:28:06;28.80;99.90
15535;DHT22;7869;49.264;8.596;2022-08-01T12:30:33;28.70;99.90
15535;DHT22;7869;49.264;8.596;2022-08-01T12:33:03;28.70;99.90
15535;DHT22;7869;49.264;8.596;2022-08-01T12:35:30;28.60;99.90
15535;DHT22;7869;49.264;8.596;2022-08-01T12:37:58;28.50;99.90
15535;DHT22;7869;49.264;8.596;2022-08-01T12:40:29;28.50;99.90
15535;DHT22;7869;49.264;8.596;2022-08-01T12:43:00;28.50;99.90
15535;DHT22;7869;49.264;8.596;2022-08-01T12:45:30;28.50;99.90
15535;DHT22;7869;49.264;8.596;2022-08-01T12:47:57;28.30;99.90
15535;DHT22;7869;49.264;8.596;2022-08-01T12:50:29;28.40;99.90
15535;DHT22;7869;49.264;8.596;2022-08-01T12:52:56;28.60;99.90
15535;DHT22;7869;49.264;8.596;2022-08-01T12:55:26;28.70;99.90
15535;DHT22;7869;49.264;8.596;2022-08-01T12:58:18;29.00;99.90
15535;DHT22;7869;49.264;8.596;2022-08-01T13:00:46;29.50;99.90
15535;DHT22;7869;49.264;8.596;2022-08-01T13:03:14;29.70;99.60
15535;DHT22;7869;49.264;8.596;2022-08-01T13:05:58;29.80;98.10
15535;DHT22;7869;49.264;8.596;2022-08-01T13:11:06;29.80;92.90
15535;DHT22;7869;49.264;8.596;2022-08-01T13:13:39;29.90;94.20
15535;DHT22;7869;49.264;8.596;2022-08-01T13:16:06;29.90;91.60
15535;DHT22;7869;49.264;8.596;2022-08-01T13:18:33;29.90;92.60
15535;DHT22;7869;49.264;8.596;2022-08-01T13:23:39;30.20;90.30
15535;DHT22;7869;49.264;8.596;2022-08-01T13:26:05;30.00;84.10
15535;DHT22;7869;49.264;8.596;2022-08-01T13:28:31;29.70;87.50
15535;DHT22;7869;49.264;8.596;2022-08-01T13:31:06;29.70;85.80
15535;DHT22;7869;49.264;8.596;2022-08-01T13:33:46;29.50;89.50
15535;DHT22;7869;49.264;8.596;2022-08-01T13:36:12;29.30;86.10
15535;DHT22;7869;49.264;8.596;2022-08-01T13:38:40;29.10;86.20
15535;DHT22;7869;49.264;8.596;2022-08-01T13:41:25;29.30;86.60
15535;DHT22;7869;49.264;8.596;2022-08-01T13:43:51;29.50;84.50
15535;DHT22;7869;49.264;8.596;2022-08-01T13:46:17;29.60;86.80
15535;DHT22;7869;49.264;8.596;2022-08-01T13:48:43;29.70;83.70
15535;DHT22;7869;49.264;8.596;2022-08-01T13:51:09;29.60;83.30
15535;DHT22;7869;49.264;8.596;2022-08-01T13:53:34;29.60;82.00
15535;DHT22;7869;49.264;8.596;2022-08-01T13:56:01;29.60;80.50
15535;DHT22;7869;49.264;8.596;2022-08-01T13:58:26;29.50;79.30
15535;DHT22;7869;49.264;8.596;2022-08-01T14:00:54;29.20;81.30
15535;DHT22;7869;49.264;8.596;2022-08-01T14:03:19;29.00;80.50
15535;DHT22;7869;49.264;8.596;2022-08-01T14:05:45;29.00;80.20
15535;DHT22;7869;49.264;8.596;2022-08-01T14:08:11;29.00;80.40
15535;DHT22;7869;49.264;8.596;2022-08-01T14:10:37;29.10;79.10
15535;DHT22;7869;49.264;8.596;2022-08-01T14:13:03;29.30;80.00
15535;DHT22;7869;49.264;8.596;2022-08-01T14:15:29;29.60;78.80
15535;DHT22;7869;49.264;8.596;2022-08-01T14:17:55;29.60;79.40
15535;DHT22;7869;49.264;8.596;2022-08-01T14:20:21;29.50;78.90
15535;DHT22;7869;49.264;8.596;2022-08-01T14:22:47;29.40;80.00
15535;DHT22;7869;49.264;8.596;2022-08-01T14:25:13;29.30;75.20
15535;DHT22;7869;49.264;8.596;2022-08-01T14:27:38;29.20;76.10
15535;DHT22;7869;49.264;8.596;2022-08-01T14:30:07;29.30;78.00
15535;DHT22;7869;49.264;8.596;2022-08-01T14:32:33;29.30;77.30
15535;DHT22;7869;49.264;8.596;2022-08-01T14:35:00;29.10;73.90
15535;DHT22;7869;49.264;8.596;2022-08-01T14:37:26;29.00;74.70
15535;DHT22;7869;49.264;8.596;2022-08-01T14:39:53;29.00;73.30
15535;DHT22;7869;49.264;8.596;2022-08-01T14:42:18;29.00;73.70
15535;DHT22;7869;49.264;8.596;2022-08-01T14:44:44;28.90;72.00
15535;DHT22;7869;49.264;8.596;2022-08-01T14:47:09;28.70;72.80
15535;DHT22;7869;49.264;8.596;2022-08-01T14:49:35;28.50;73.30
15535;DHT22;7869;49.264;8.596;2022-08-01T14:52:01;28.50;73.80
15535;DHT22;7869;49.264;8.596;2022-08-01T14:54:26;28.50;75.90
15535;DHT22;7869;49.264;8.596;2022-08-01T14:56:52;28.60;73.80
15535;DHT22;7869;49.264;8.596;2022-08-01T14:59:19;28.60;71.70
15535;DHT22;7869;49.264;8.596;2022-08-01T15:01:44;28.70;70.60
15535;DHT22;7869;49.264;8.596;2022-08-01T15:04:10;28.70;71.70
15535;DHT22;7869;49.264;8.596;2022-08-01T15:06:36;28.50;71.70
15535;DHT22;7869;49.264;8.596;2022-08-01T15:09:02;28.50;70.80
15535;DHT22;7869;49.264;8.596;2022-08-01T15:11:28;28.50;72.40
15535;DHT22;7869;49.264;8.596;2022-08-01T15:13:53;28.50;71.20
15535;DHT22;7869;49.264;8.596;2022-08-01T15:16:37;28.40;74.80
15535;DHT22;7869;49.264;8.596;2022-08-01T15:19:04;28.30;73.40
15535;DHT22;7869;49.264;8.596;2022-08-01T15:21:29;28.40;74.50
15535;DHT22;7869;49.264;8.596;2022-08-01T15:23:55;28.70;76.00
15535;DHT22;7869;49.264;8.596;2022-08-01T15:26:20;29.00;68.80
15535;DHT22;7869;49.264;8.596;2022-08-01T15:28:46;28.80;68.50
15535;DHT22;7869;49.264;8.596;2022-08-01T15:31:12;28.80;73.90
15535;DHT22;7869;49.264;8.596;2022-08-01T15:33:38;28.70;70.00
15535;DHT22;7869;49.264;8.596;2022-08-01T15:36:04;28.50;70.50
15535;DHT22;7869;49.264;8.596;2022-08-01T15:38:29;28.40;69.20
15535;DHT22;7869;49.264;8.596;2022-08-01T15:40:55;28.50;68.90
15535;DHT22;7869;49.264;8.596;2022-08-01T15:43:21;28.40;70.10
15535;DHT22;7869;49.264;8.596;2022-08-01T15:45:46;28.20;71.00
15535;DHT22;7869;49.264;8.596;2022-08-01T15:48:12;28.00;73.80
15535;DHT22;7869;49.264;8.596;2022-08-01T15:50:37;28.00;71.90
15535;DHT22;7869;49.264;8.596;2022-08-01T15:53:04;28.10;71.30
15535;DHT22;7869;49.264;8.596;2022-08-01T15:55:30;28.10;70.20
15535;DHT22;7869;49.264;8.596;2022-08-01T15:57:55;28.00;73.30
15535;DHT22;7869;49.264;8.596;2022-08-01T16:00:21;28.10;72.00
15535;DHT22;7869;49.264;8.596;2022-08-01T16:02:46;28.20;72.80
15535;DHT22;7869;49.264;8.596;2022-08-01T16:05:12;28.30;72.10
15535;DHT22;7869;49.264;8.596;2022-08-01T16:07:38;28.50;72.00
15535;DHT22;7869;49.264;8.596;2022-08-01T16:10:04;28.40;72.90
15535;DHT22;7869;49.264;8.596;2022-08-01T16:12:30;28.40;73.10
15535;DHT22;7869;49.264;8.596;2022-08-01T16:14:55;28.40;72.50
15535;DHT22;7869;49.264;8.596;2022-08-01T16:17:21;28.20;72.40
15535;DHT22;7869;49.264;8.596;2022-08-01T16:19:47;28.20;72.30
15535;DHT22;7869;49.264;8.596;2022-08-01T16:22:13;27.90;73.10
15535;DHT22;7869;49.264;8.596;2022-08-01T16:24:39;27.90;74.10
15535;DHT22;7869;49.264;8.596;2022-08-01T16:27:04;27.80;76.20
15535;DHT22;7869;49.264;8.596;2022-08-01T16:29:30;27.90;77.20
15535;DHT22;7869;49.264;8.596;2022-08-01T16:31:56;27.80;74.90
15535;DHT22;7869;49.264;8.596;2022-08-01T16:34:22;27.70;76.00